Cedar Grove, NJ (07009)

12:49 PM EST on December 09, 2016 (GMT -0500)
Crestmont Road | | Change Station

Elev 564 ft 40.84 °N, 74.22 °W | Updated 5 seconds ago

Partly Cloudy
Partly Cloudy
35.1 °F
Feels Like 27 °F
N
12.0
Wind Variable Wind from WNW
Gusts 20.0 mph

Today
High -- | Low -- °F
--% Chance of Precip.
Yesterday
High -- | Low -- °F
Precip. -- in
Pressure 30.13 in
Visibility 10.0 miles
Clouds Scattered Clouds 5500 ft
Windchill 27 °F
Dew Point 16 °F
Humidity 46%
Rainfall 0.00 in
Snow Depth Not available.
7:09 AM 4:29 PM
Waxing Gibbous, 76% visible
METAR KCDW 091653Z 32016G23KT 10SM SCT055 03/M09 A3011 RMK AO2 SLP203 T00331094
Pressure 30.13 in
Visibility 10.0 miles
Clouds Scattered Clouds 5500 ft
Windchill 27 °F
Dew Point 16 °F
Humidity 46%
Rainfall 0.00 in
Snow Depth Not available.
7:09 AM 4:29 PM
Waxing Gibbous, 76% visible
METAR KCDW 091653Z 32016G23KT 10SM SCT055 03/M09 A3011 RMK AO2 SLP203 T00331094

10-Day Weather Forecast

Almanac

Astronomy

Dec. 09, 2016 Rise Set
Actual Time
Civil Twilight
Nautical Twilight
Astronomical Twilight
Moon
Length of Visible Light
Length of Day
Tomorrow will be .
, % of the Moon is Illuminated

Today's Extremes

State Highs State Lows

Community

WunderPhotos

Upload Photos

1,956,462 photos uploaded!

WunderBlog® & News

Nearby

Air Quality

  Air Quality AQ Index Pollutant
Not available.

Snow Depth

Station Depth Elevation

Earthquake Activity

City Distance Mag. Time & Date
Minimum magnitude displayed is 2.5.

Coastal Water Temperatures

Place Temperature

Stations

Nearby Weather Stations

Station Location Temp. Windchill Dew Point Humidity Wind Precip. Elev Updated Type
                   

Watches & Warnings

There are currently no watches in effect.